createdAt,value
2022-09-18T00:00:39.820Z,2.00
2022-09-18T00:02:02.785Z,2.35
2022-09-18T00:03:04.765Z,2.10
2022-09-18T00:04:08.953Z,2.35
2022-09-18T00:05:10.615Z,2.38
2022-09-18T00:06:15.904Z,2.25
2022-09-18T00:07:18.622Z,2.20
2022-09-18T00:08:21.166Z,1.83
2022-09-18T00:09:22.803Z,2.00
2022-09-18T00:10:25.319Z,2.03
2022-09-18T00:11:32.955Z,3.25
2022-09-18T00:12:35.497Z,1.60
2022-09-18T00:13:39.089Z,1.98
2022-09-18T00:14:41.808Z,1.95
2022-09-18T00:15:43.401Z,1.95
2022-09-18T00:16:46.138Z,1.88
2022-09-18T00:17:48.221Z,2.47
2022-09-18T00:18:50.802Z,1.95
2022-09-18T00:19:52.400Z,2.20
2022-09-18T00:21:04.980Z,2.30
2022-09-18T00:22:11.075Z,2.00
2022-09-18T00:23:12.600Z,1.95
2022-09-18T00:24:17.397Z,1.92
2022-09-18T00:25:18.962Z,1.48
2022-09-18T00:26:21.917Z,1.80
2022-09-18T00:27:24.818Z,1.70
2022-09-18T00:28:27.609Z,1.98
2022-09-18T00:29:29.457Z,2.00
2022-09-18T00:30:31.976Z,2.05
2022-09-18T00:31:35.423Z,2.40
2022-09-18T00:32:37.959Z,2.30
2022-09-18T00:33:40.166Z,2.17
2022-09-18T00:34:42.681Z,2.50
2022-09-18T00:35:45.151Z,2.25
2022-09-18T00:36:47.656Z,2.35
2022-09-18T00:37:49.191Z,1.83
2022-09-18T00:38:51.956Z,2.00
2022-09-18T00:39:53.546Z,2.67
2022-09-18T00:40:57.204Z,1.70
2022-09-18T00:41:58.766Z,2.28
2022-09-18T00:43:21.968Z,2.00
2022-09-18T00:44:36.707Z,1.90
2022-09-18T00:45:39.261Z,2.65
2022-09-18T00:46:44.135Z,2.60
2022-09-18T00:47:49.951Z,2.42
2022-09-18T00:48:59.873Z,2.45
2022-09-18T00:50:11.389Z,2.60
2022-09-18T00:51:14.586Z,2.25
2022-09-18T00:52:19.109Z,2.15
2022-09-18T00:53:21.038Z,2.22
2022-09-18T00:54:29.202Z,2.40
2022-09-18T00:55:33.880Z,2.30
2022-09-18T00:56:38.166Z,1.80
2022-09-18T00:57:45.708Z,1.40
2022-09-18T00:58:50.689Z,1.85
2022-09-18T00:59:53.215Z,2.22
2022-09-18T01:00:56.175Z,2.05
2022-09-18T01:01:59.632Z,2.42
2022-09-18T01:03:02.351Z,2.38
2022-09-18T01:04:04.203Z,2.05
2022-09-18T01:05:08.586Z,2.45
2022-09-18T01:06:14.007Z,2.10
2022-09-18T01:07:29.061Z,2.10
2022-09-18T01:08:44.073Z,1.90
2022-09-18T01:09:56.951Z,1.73
2022-09-18T01:11:10.187Z,2.65
2022-09-18T01:12:22.369Z,3.55
2022-09-18T01:13:34.400Z,2.08
2022-09-18T01:14:45.012Z,2.13
2022-09-18T01:15:51.035Z,2.33
2022-09-18T01:17:01.921Z,1.70
2022-09-18T01:18:14.911Z,2.17
2022-09-18T01:19:38.128Z,2.45
2022-09-18T01:21:01.190Z,2.95
2022-09-18T01:22:16.898Z,2.40
2022-09-18T01:23:51.994Z,3.97
2022-09-18T01:25:16.437Z,2.38
2022-09-18T01:26:29.682Z,2.13
2022-09-18T01:27:40.497Z,1.95
2022-09-18T01:28:48.251Z,2.33
2022-09-18T01:30:01.132Z,1.52
2022-09-18T01:31:06.473Z,1.80
2022-09-18T01:32:16.629Z,2.00
2022-09-18T01:33:26.754Z,1.98
2022-09-18T01:34:33.068Z,1.90
2022-09-18T01:35:42.268Z,2.60
2022-09-18T01:36:50.024Z,1.95
2022-09-18T01:37:58.790Z,1.73
2022-09-18T01:39:12.727Z,1.77
2022-09-18T01:40:21.478Z,1.90
2022-09-18T01:41:24.924Z,1.70
2022-09-18T01:42:30.660Z,1.80
2022-09-18T01:43:34.788Z,1.65
2022-09-18T01:44:41.992Z,3.60
2022-09-18T01:45:46.668Z,2.50
2022-09-18T01:46:51.076Z,1.88
2022-09-18T01:47:56.992Z,1.90
2022-09-18T01:49:05.341Z,1.42
2022-09-18T01:50:10.308Z,1.77
2022-09-18T01:51:18.344Z,1.75
2022-09-18T01:52:26.062Z,1.98
2022-09-18T01:53:32.378Z,1.67
2022-09-18T01:54:38.724Z,2.03
2022-09-18T01:55:43.602Z,2.78
2022-09-18T01:56:50.115Z,1.70
2022-09-18T01:57:58.430Z,1.70
2022-09-18T01:59:04.545Z,1.50
2022-09-18T02:00:11.316Z,1.60
2022-09-18T02:01:18.393Z,1.77
2022-09-18T02:02:25.018Z,1.67
2022-09-18T02:03:29.236Z,1.30
2022-09-18T02:04:37.064Z,1.75
2022-09-18T02:05:43.304Z,1.58
2022-09-18T02:06:50.843Z,1.60
2022-09-18T02:08:02.611Z,1.60
2022-09-18T02:09:06.116Z,1.75
2022-09-18T02:10:08.363Z,2.20
2022-09-18T02:11:13.539Z,1.85
2022-09-18T02:12:20.637Z,2.85
2022-09-18T02:13:27.706Z,1.85
2022-09-18T02:14:33.495Z,1.80
2022-09-18T02:15:41.613Z,1.90
2022-09-18T02:16:45.541Z,2.10
2022-09-18T02:17:54.859Z,1.70
2022-09-18T02:18:58.006Z,1.73
2022-09-18T02:20:05.214Z,1.80
2022-09-18T02:21:10.429Z,2.05
2022-09-18T02:22:17.248Z,2.47
2022-09-18T02:23:20.314Z,2.00
2022-09-18T02:24:28.361Z,2.28
2022-09-18T02:25:35.399Z,1.90
2022-09-18T02:26:42.119Z,2.40
2022-09-18T02:27:44.792Z,1.80
2022-09-18T02:28:49.220Z,2.78
2022-09-18T02:29:53.744Z,2.17
2022-09-18T02:30:58.349Z,2.10
2022-09-18T02:32:02.248Z,2.40
2022-09-18T02:33:03.939Z,2.35
2022-09-18T02:34:08.231Z,2.25
2022-09-18T02:35:11.025Z,2.40
2022-09-18T02:36:39.820Z,1.90
2022-09-18T02:37:54.526Z,2.00
2022-09-18T02:39:08.334Z,2.30
2022-09-18T02:40:21.776Z,2.20
2022-09-18T02:41:34.734Z,2.50
2022-09-18T02:42:44.507Z,2.45
2022-09-18T02:43:54.366Z,2.85
2022-09-18T02:45:03.241Z,2.40
2022-09-18T02:46:17.783Z,1.88
2022-09-18T02:47:30.269Z,1.92
2022-09-18T02:48:48.544Z,2.20
2022-09-18T02:50:00.084Z,2.60
2022-09-18T02:51:11.400Z,2.63
2022-09-18T02:52:19.444Z,2.50
2022-09-18T02:53:28.461Z,3.00
2022-09-18T02:54:35.689Z,2.70
2022-09-18T02:55:45.321Z,2.50
2022-09-18T02:56:51.165Z,3.25
2022-09-18T02:57:59.422Z,2.65
2022-09-18T02:59:06.289Z,3.60
2022-09-18T03:00:12.420Z,2.97
2022-09-18T03:01:18.238Z,2.65
2022-09-18T03:02:23.704Z,2.45
2022-09-18T03:03:27.697Z,2.45
2022-09-18T03:04:32.441Z,2.90
2022-09-18T03:05:34.023Z,2.90
2022-09-18T03:06:36.522Z,2.92
2022-09-18T03:07:38.257Z,2.28
2022-09-18T03:08:40.736Z,2.55
2022-09-18T03:09:42.680Z,3.08
2022-09-18T03:10:45.168Z,3.10
2022-09-18T03:11:46.763Z,3.00
2022-09-18T03:12:49.328Z,3.00
2022-09-18T03:13:51.139Z,3.17
2022-09-18T03:14:53.603Z,2.30
2022-09-18T03:15:55.597Z,2.83
2022-09-18T03:16:59.453Z,2.72
2022-09-18T03:18:01.354Z,2.60
2022-09-18T03:19:04.344Z,2.40
2022-09-18T03:20:06.963Z,2.70
2022-09-18T03:21:09.483Z,2.72
2022-09-18T03:22:10.991Z,3.08
2022-09-18T03:23:13.841Z,1.95
2022-09-18T03:24:15.391Z,2.80
2022-09-18T03:25:17.888Z,2.10
2022-09-18T03:26:19.455Z,2.53
2022-09-18T03:27:21.937Z,2.22
2022-09-18T03:28:23.451Z,3.30
2022-09-18T03:29:26.072Z,2.08
2022-09-18T03:30:27.802Z,2.17
2022-09-18T03:31:30.402Z,2.65
2022-09-18T03:32:33.259Z,2.60
2022-09-18T03:33:37.887Z,2.25
2022-09-18T03:34:39.439Z,2.55
2022-09-18T03:35:43.402Z,2.05
2022-09-18T03:36:46.971Z,2.72
2022-09-18T03:37:48.872Z,2.35
2022-09-18T03:38:51.414Z,2.15
2022-09-18T03:39:53.930Z,2.65
2022-09-18T03:40:55.510Z,2.65
2022-09-18T03:41:58.111Z,3.00
2022-09-18T03:42:59.639Z,2.15
2022-09-18T03:44:03.672Z,2.05
2022-09-18T03:45:06.726Z,2.85
2022-09-18T03:46:09.263Z,2.63
2022-09-18T03:47:10.879Z,2.67
2022-09-18T03:48:14.679Z,2.45
2022-09-18T03:49:16.206Z,2.25
2022-09-18T03:50:18.936Z,2.10
2022-09-18T03:51:21.112Z,2.40
2022-09-18T03:52:23.617Z,3.03
2022-09-18T03:53:25.918Z,3.50
2022-09-18T03:54:28.808Z,2.25
2022-09-18T03:55:30.428Z,1.88
2022-09-18T03:56:32.988Z,1.83
2022-09-18T03:57:34.530Z,2.30
2022-09-18T03:58:37.008Z,2.40
2022-09-18T03:59:38.541Z,1.73
2022-09-18T04:00:42.074Z,1.92
2022-09-18T04:01:43.702Z,2.28
2022-09-18T04:02:46.301Z,1.60
2022-09-18T04:03:49.598Z,1.80
2022-09-18T04:04:53.769Z,2.03
2022-09-18T04:05:55.434Z,1.65
2022-09-18T04:06:57.980Z,1.77
2022-09-18T04:07:59.726Z,1.50
2022-09-18T04:09:02.332Z,2.10
2022-09-18T04:10:04.692Z,2.00
2022-09-18T04:11:07.235Z,2.15
2022-09-18T04:12:08.757Z,2.28
2022-09-18T04:13:11.260Z,2.60
2022-09-18T04:14:14.274Z,1.92
2022-09-18T04:15:17.352Z,2.20
2022-09-18T04:16:18.904Z,2.30
2022-09-18T04:17:21.593Z,1.92
2022-09-18T04:18:23.695Z,2.05
2022-09-18T04:19:27.532Z,1.80
2022-09-18T04:20:29.202Z,2.10
2022-09-18T04:21:32.561Z,2.13
2022-09-18T04:22:34.236Z,1.55
2022-09-18T04:23:36.773Z,1.90
2022-09-18T04:24:39.578Z,2.35
2022-09-18T04:25:43.766Z,2.50
2022-09-18T04:26:45.290Z,1.80
2022-09-18T04:27:47.781Z,2.20
2022-09-18T04:28:49.338Z,3.17
2022-09-18T04:29:51.841Z,2.40
2022-09-18T04:30:53.499Z,1.90
2022-09-18T04:31:55.996Z,2.28
2022-09-18T04:32:57.599Z,1.95
2022-09-18T04:34:00.106Z,2.30
2022-09-18T04:35:03.088Z,2.80
2022-09-18T04:36:05.815Z,2.60
2022-09-18T04:37:10.392Z,2.50
2022-09-18T04:38:13.218Z,2.70
2022-09-18T04:39:14.912Z,2.42
2022-09-18T04:40:17.598Z,2.65
2022-09-18T04:41:19.165Z,2.10
2022-09-18T04:42:21.607Z,2.28
2022-09-18T04:43:23.464Z,2.40
2022-09-18T04:44:26.119Z,2.10
2022-09-18T04:45:27.684Z,2.42
2022-09-18T04:46:30.235Z,2.70
2022-09-18T04:47:31.758Z,2.55
2022-09-18T04:48:37.995Z,2.63
2022-09-18T04:49:39.683Z,3.20
2022-09-18T04:50:43.487Z,2.60
2022-09-18T04:51:45.014Z,2.88
2022-09-18T04:52:47.495Z,2.80
2022-09-18T04:53:49.027Z,3.20
2022-09-18T04:54:51.517Z,4.13
2022-09-18T04:55:52.998Z,3.72
2022-09-18T04:56:55.456Z,3.67
2022-09-18T04:57:57.025Z,3.45
2022-09-18T04:58:59.873Z,4.05
2022-09-18T05:00:01.913Z,3.95
2022-09-18T05:01:16.365Z,4.25
2022-09-18T05:02:18.427Z,4.63
2022-09-18T05:03:22.468Z,4.20
2022-09-18T05:04:24.036Z,3.13
2022-09-18T05:05:27.656Z,4.20
2022-09-18T05:06:30.603Z,4.38
2022-09-18T05:07:33.197Z,4.60
2022-09-18T05:08:34.826Z,4.05
2022-09-18T05:09:37.500Z,4.60
2022-09-18T05:10:39.658Z,4.88
2022-09-18T05:11:42.174Z,4.82
2022-09-18T05:12:44.938Z,4.57
2022-09-18T05:13:48.875Z,3.72
2022-09-18T05:14:50.621Z,4.63
2022-09-18T05:15:55.531Z,4.65
2022-09-18T05:16:57.143Z,4.60
2022-09-18T05:18:00.962Z,4.13
2022-09-18T05:19:02.661Z,4.80
2022-09-18T05:20:06.018Z,7.22
2022-09-18T05:21:07.610Z,4.70
2022-09-18T05:22:11.458Z,5.65
2022-09-18T05:23:13.807Z,4.70
2022-09-18T05:24:17.384Z,5.10
2022-09-18T05:25:20.564Z,4.85
2022-09-18T05:26:23.028Z,4.40
2022-09-18T05:27:26.939Z,4.15
2022-09-18T05:28:29.734Z,4.50
2022-09-18T05:29:31.414Z,4.05
2022-09-18T05:30:33.911Z,4.05
2022-09-18T05:31:35.570Z,4.55
2022-09-18T05:32:38.065Z,3.80
2022-09-18T05:33:41.179Z,4.50
2022-09-18T05:34:43.838Z,4.60
2022-09-18T05:35:45.416Z,4.32
2022-09-18T05:36:48.218Z,4.15
2022-09-18T05:37:51.637Z,4.90
2022-09-18T05:38:54.140Z,4.30
2022-09-18T05:39:56.365Z,3.50
2022-09-18T05:41:01.518Z,4.00
2022-09-18T05:42:03.846Z,4.00
2022-09-18T05:43:07.216Z,4.00
2022-09-18T05:44:08.740Z,3.63
2022-09-18T05:45:12.044Z,3.30
2022-09-18T05:46:14.813Z,4.13
2022-09-18T05:47:17.380Z,3.83
2022-09-18T05:48:18.890Z,3.45
2022-09-18T05:49:21.389Z,4.00
2022-09-18T05:50:24.387Z,3.80
2022-09-18T05:51:26.878Z,3.58
2022-09-18T05:52:28.432Z,3.03
2022-09-18T05:53:32.371Z,3.10
2022-09-18T05:54:36.437Z,3.50
2022-09-18T05:55:39.016Z,3.47
2022-09-18T05:56:40.583Z,3.15
2022-09-18T05:57:43.070Z,3.80
2022-09-18T05:58:44.590Z,3.10
2022-09-18T05:59:47.129Z,3.05
2022-09-18T06:00:51.109Z,2.75
2022-09-18T06:01:53.597Z,2.75
2022-09-18T06:02:56.328Z,2.90
2022-09-18T06:04:02.547Z,2.65
2022-09-18T06:05:04.911Z,2.60
2022-09-18T06:06:08.148Z,2.88
2022-09-18T06:07:10.001Z,2.80
2022-09-18T06:08:13.296Z,2.30
2022-09-18T06:09:16.435Z,2.20
2022-09-18T06:10:20.488Z,2.97
2022-09-18T06:11:22.210Z,3.17
2022-09-18T06:12:24.944Z,4.25
2022-09-18T06:13:26.593Z,3.08
2022-09-18T06:14:29.169Z,2.47
2022-09-18T06:15:31.080Z,2.17
2022-09-18T06:16:34.408Z,3.30
2022-09-18T06:17:38.101Z,2.72
2022-09-18T06:18:40.554Z,2.22
2022-09-18T06:19:42.113Z,2.40
2022-09-18T06:20:45.505Z,2.38
2022-09-18T06:21:47.047Z,2.42
2022-09-18T06:22:49.598Z,2.42
2022-09-18T06:23:52.088Z,2.50
2022-09-18T06:24:54.971Z,2.70
2022-09-18T06:25:59.106Z,1.92
2022-09-18T06:27:00.634Z,1.85
2022-09-18T06:28:04.024Z,1.88
2022-09-18T06:29:05.589Z,4.03
2022-09-18T06:30:08.993Z,2.10
2022-09-18T06:31:11.527Z,2.00
2022-09-18T06:32:13.071Z,2.25
2022-09-18T06:33:15.712Z,2.00
2022-09-18T06:34:17.297Z,2.20
2022-09-18T06:35:19.762Z,2.13
2022-09-18T06:36:21.321Z,2.42
2022-09-18T06:37:24.002Z,1.88
2022-09-18T06:38:25.537Z,3.08
2022-09-18T06:39:28.300Z,1.90
2022-09-18T06:40:31.933Z,2.25
2022-09-18T06:41:34.477Z,2.15
2022-09-18T06:42:36.039Z,2.35
2022-09-18T06:43:38.507Z,2.20
2022-09-18T06:44:40.098Z,1.85
2022-09-18T06:45:42.733Z,2.75
2022-09-18T06:46:44.294Z,2.88
2022-09-18T06:47:46.799Z,2.33
2022-09-18T06:48:48.497Z,2.80
2022-09-18T06:49:51.058Z,2.95
2022-09-18T06:50:53.253Z,2.53
2022-09-18T06:51:55.785Z,2.40
2022-09-18T06:53:02.936Z,3.13
2022-09-18T06:54:06.225Z,2.83
2022-09-18T06:55:08.341Z,2.78
2022-09-18T06:56:12.183Z,2.90
2022-09-18T06:57:13.703Z,3.40
2022-09-18T06:58:17.384Z,2.65
2022-09-18T06:59:19.141Z,3.28
2022-09-18T07:00:22.577Z,3.00
2022-09-18T07:01:24.183Z,2.83
2022-09-18T07:02:26.750Z,2.88
2022-09-18T07:03:28.498Z,3.20
2022-09-18T07:04:30.983Z,2.80
2022-09-18T07:05:33.163Z,2.80
2022-09-18T07:06:35.717Z,2.47
2022-09-18T07:07:37.226Z,2.90
2022-09-18T07:08:39.685Z,2.97
2022-09-18T07:09:41.211Z,2.70
2022-09-18T07:10:43.864Z,2.33
2022-09-18T07:11:46.720Z,2.08
2022-09-18T07:12:49.831Z,2.50
2022-09-18T07:13:53.114Z,2.67
2022-09-18T07:14:55.744Z,2.67
2022-09-18T07:15:57.441Z,3.78
2022-09-18T07:17:00.045Z,1.52
2022-09-18T07:18:03.340Z,2.40
2022-09-18T07:19:05.984Z,3.05
2022-09-18T07:20:08.376Z,2.28
2022-09-18T07:21:11.172Z,3.03
2022-09-18T07:22:12.706Z,3.25
2022-09-18T07:23:15.239Z,2.95
2022-09-18T07:24:16.767Z,2.58
2022-09-18T07:25:19.245Z,2.67
2022-09-18T07:26:20.791Z,2.90
2022-09-18T07:27:24.666Z,2.88
2022-09-18T07:28:26.435Z,2.42
2022-09-18T07:29:28.931Z,2.00
2022-09-18T07:30:30.550Z,1.85
2022-09-18T07:31:35.815Z,2.13
2022-09-18T07:32:37.416Z,2.13
2022-09-18T07:33:40.417Z,2.50
2022-09-18T07:34:41.987Z,2.38
2022-09-18T07:35:44.461Z,2.45
2022-09-18T07:36:49.464Z,2.20
2022-09-18T07:37:51.976Z,2.10
2022-09-18T07:38:53.779Z,2.13
2022-09-18T07:39:56.300Z,2.22
2022-09-18T07:41:01.392Z,2.63
2022-09-18T07:42:08.751Z,2.40
2022-09-18T07:43:13.210Z,2.22
2022-09-18T07:44:14.748Z,1.85
2022-09-18T07:45:17.549Z,2.20
2022-09-18T07:46:19.432Z,2.10
2022-09-18T07:47:21.949Z,2.10
2022-09-18T07:48:24.165Z,2.13
2022-09-18T07:49:26.700Z,2.15
2022-09-18T07:50:28.566Z,2.05
2022-09-18T07:51:31.110Z,2.00
2022-09-18T07:52:32.633Z,2.10
2022-09-18T07:53:37.466Z,1.80
2022-09-18T07:54:38.988Z,2.15
2022-09-18T07:55:42.825Z,1.83
2022-09-18T07:56:46.866Z,2.03
2022-09-18T07:57:55.424Z,2.00
2022-09-18T07:58:59.319Z,2.08
2022-09-18T08:00:00.889Z,1.95
2022-09-18T08:01:09.068Z,2.70
2022-09-18T08:02:11.348Z,2.13
2022-09-18T08:03:15.150Z,1.98
2022-09-18T08:04:16.732Z,1.95
2022-09-18T08:05:19.192Z,2.10
2022-09-18T08:06:20.813Z,2.53
2022-09-18T08:07:25.848Z,1.85
2022-09-18T08:08:27.468Z,1.73
2022-09-18T08:09:30.060Z,1.77
2022-09-18T08:10:32.158Z,1.90
2022-09-18T08:11:34.687Z,2.08
2022-09-18T08:12:36.373Z,3.30
2022-09-18T08:13:39.203Z,2.05
2022-09-18T08:14:42.139Z,2.10
2022-09-18T08:15:44.636Z,2.17
2022-09-18T08:16:47.071Z,2.45
2022-09-18T08:17:49.608Z,2.42
2022-09-18T08:18:51.178Z,2.05
2022-09-18T08:19:53.692Z,2.35
2022-09-18T08:20:55.777Z,2.70
2022-09-18T08:21:58.255Z,2.40
2022-09-18T08:23:01.463Z,2.33
2022-09-18T08:24:04.423Z,2.17
2022-09-18T08:25:07.388Z,1.85
2022-09-18T08:26:10.127Z,2.38
2022-09-18T08:27:12.905Z,1.95
2022-09-18T08:28:15.648Z,1.88
2022-09-18T08:29:19.146Z,2.10
2022-09-18T08:30:23.230Z,2.20
2022-09-18T08:31:24.832Z,2.13
2022-09-18T08:32:27.371Z,2.10
2022-09-18T08:33:29.045Z,2.03
2022-09-18T08:34:31.642Z,2.10
2022-09-18T08:35:34.061Z,2.13
2022-09-18T08:36:36.609Z,2.30
2022-09-18T08:37:38.210Z,2.22
2022-09-18T08:38:40.686Z,1.85
2022-09-18T08:39:42.697Z,2.22
2022-09-18T08:41:08.868Z,1.90
2022-09-18T08:42:25.750Z,2.10
2022-09-18T08:43:44.325Z,2.08
2022-09-18T08:44:51.174Z,2.10
2022-09-18T08:46:00.581Z,2.20
2022-09-18T08:47:08.537Z,2.38
2022-09-18T08:48:15.920Z,2.25
2022-09-18T08:49:25.683Z,3.97
2022-09-18T08:50:29.587Z,2.00
2022-09-18T08:51:34.983Z,2.40
2022-09-18T08:52:41.565Z,3.30
2022-09-18T08:53:46.963Z,2.25
2022-09-18T08:54:56.254Z,2.70
2022-09-18T08:56:00.374Z,1.90
2022-09-18T08:57:15.520Z,2.22
2022-09-18T08:58:24.064Z,2.35
2022-09-18T08:59:38.236Z,1.90
2022-09-18T09:00:42.980Z,1.95
2022-09-18T09:01:56.322Z,2.28
2022-09-18T09:03:09.711Z,2.90
2022-09-18T09:04:16.122Z,2.70
2022-09-18T09:05:21.363Z,2.65
2022-09-18T09:06:33.277Z,2.78
2022-09-18T09:07:50.641Z,2.40
2022-09-18T09:09:09.679Z,2.60
2022-09-18T09:10:39.952Z,2.88
2022-09-18T09:11:50.050Z,2.80
2022-09-18T09:13:02.670Z,3.42
2022-09-18T09:14:45.851Z,3.35
2022-09-18T09:15:55.181Z,3.17
2022-09-18T09:17:04.375Z,3.63
2022-09-18T09:18:17.769Z,3.72
2022-09-18T09:19:34.758Z,4.00
2022-09-18T09:20:45.584Z,4.00
2022-09-18T09:21:56.900Z,4.50
2022-09-18T09:23:03.200Z,4.57
2022-09-18T09:24:21.099Z,3.95
2022-09-18T09:25:29.595Z,4.70
2022-09-18T09:26:32.256Z,4.70
2022-09-18T09:27:39.164Z,4.88
2022-09-18T09:28:51.303Z,4.60
2022-09-18T09:30:01.935Z,4.90
2022-09-18T09:31:08.864Z,4.07
2022-09-18T09:32:20.954Z,4.22
2022-09-18T09:33:27.754Z,4.50
2022-09-18T09:34:34.385Z,5.25
2022-09-18T09:35:42.108Z,5.00
2022-09-18T09:36:48.970Z,4.35
2022-09-18T09:37:52.767Z,5.00
2022-09-18T09:38:58.933Z,4.13
2022-09-18T09:40:08.608Z,4.35
2022-09-18T09:41:25.242Z,4.10
2022-09-18T09:42:31.054Z,4.38
2022-09-18T09:43:38.466Z,3.30
2022-09-18T09:44:44.763Z,4.20
2022-09-18T09:45:48.715Z,3.30
2022-09-18T09:47:01.268Z,3.30
2022-09-18T09:48:11.629Z,3.67
2022-09-18T09:49:18.197Z,2.92
2022-09-18T09:50:34.752Z,3.70
2022-09-18T09:51:49.167Z,2.75
2022-09-18T09:52:56.235Z,3.08
2022-09-18T09:54:00.045Z,2.53
2022-09-18T09:55:20.436Z,2.45
2022-09-18T09:56:29.420Z,2.58
2022-09-18T09:57:40.193Z,2.63
2022-09-18T09:58:53.100Z,2.17
2022-09-18T10:00:06.357Z,2.47
2022-09-18T10:01:14.105Z,2.38
2022-09-18T10:02:34.251Z,2.13
2022-09-18T10:03:47.727Z,2.20
2022-09-18T10:04:57.144Z,2.38
2022-09-18T10:06:11.319Z,2.30
2022-09-18T10:07:20.532Z,3.05
2022-09-18T10:08:27.548Z,2.47
2022-09-18T10:09:41.628Z,2.80
2022-09-18T10:10:49.241Z,2.40
2022-09-18T10:11:57.474Z,2.30
2022-09-18T10:13:03.662Z,2.38
2022-09-18T10:14:12.474Z,2.72
2022-09-18T10:15:19.419Z,2.50
2022-09-18T10:16:25.639Z,2.20
2022-09-18T10:17:34.887Z,2.58
2022-09-18T10:18:41.235Z,2.50
2022-09-18T10:19:44.412Z,2.50
2022-09-18T10:20:50.760Z,3.00
2022-09-18T10:21:55.909Z,2.35
2022-09-18T10:23:01.847Z,2.60
2022-09-18T10:24:15.980Z,2.83
2022-09-18T10:25:27.461Z,2.40
2022-09-18T10:26:34.553Z,2.70
2022-09-18T10:27:37.056Z,2.22
2022-09-18T10:28:39.554Z,2.70
2022-09-18T10:29:41.978Z,2.53
2022-09-18T10:31:01.369Z,2.70
2022-09-18T10:32:04.335Z,3.10
2022-09-18T10:33:30.721Z,2.75
2022-09-18T10:34:41.288Z,2.35
2022-09-18T10:35:45.276Z,2.60
2022-09-18T10:36:49.242Z,2.35
2022-09-18T10:37:50.797Z,2.45
2022-09-18T10:38:53.483Z,2.50
2022-09-18T10:39:57.551Z,2.85
2022-09-18T10:41:15.448Z,2.70
2022-09-18T10:42:20.540Z,2.55
2022-09-18T10:43:23.006Z,2.25
2022-09-18T10:44:28.875Z,2.25
2022-09-18T10:45:36.230Z,2.40
2022-09-18T10:46:40.900Z,1.98
2022-09-18T10:47:44.551Z,2.35
2022-09-18T10:48:46.168Z,2.35
2022-09-18T10:49:51.663Z,2.10
2022-09-18T10:50:56.246Z,2.38
2022-09-18T10:52:35.978Z,2.40
2022-09-18T10:53:38.592Z,1.95
2022-09-18T10:54:41.187Z,2.00
2022-09-18T10:55:51.584Z,2.33
2022-09-18T10:57:18.208Z,4.55
2022-09-18T10:58:30.383Z,2.20
2022-09-18T10:59:34.622Z,2.42
2022-09-18T11:00:40.167Z,2.30
2022-09-18T11:01:44.908Z,1.90
2022-09-18T11:02:52.349Z,2.63
2022-09-18T11:04:02.438Z,1.98
2022-09-18T11:05:04.948Z,1.85
2022-09-18T11:06:16.348Z,2.10
2022-09-18T11:07:22.405Z,1.85
2022-09-18T11:08:30.978Z,2.03
2022-09-18T11:09:37.781Z,2.38
2022-09-18T11:10:39.469Z,2.20
2022-09-18T11:11:45.766Z,1.92
2022-09-18T11:12:54.971Z,2.20
2022-09-18T11:14:01.023Z,1.90
2022-09-18T11:15:07.488Z,2.00
2022-09-18T11:16:10.349Z,2.35
2022-09-18T11:17:24.393Z,1.60
2022-09-18T11:18:27.062Z,2.00
2022-09-18T11:19:32.831Z,2.13
2022-09-18T11:20:40.589Z,1.65
2022-09-18T11:21:47.035Z,1.60
2022-09-18T11:22:49.554Z,1.90
2022-09-18T11:24:02.337Z,1.90
2022-09-18T11:25:18.575Z,1.80
2022-09-18T11:26:28.852Z,1.90
2022-09-18T11:27:44.914Z,2.00
2022-09-18T11:29:05.368Z,2.00
2022-09-18T11:30:15.120Z,2.47
2022-09-18T11:31:20.415Z,2.15
2022-09-18T11:32:26.204Z,1.70
2022-09-18T11:33:33.005Z,1.98
2022-09-18T11:34:38.813Z,1.98
2022-09-18T11:35:45.370Z,2.50
2022-09-18T11:36:52.849Z,2.10
2022-09-18T11:37:58.420Z,2.40
2022-09-18T11:39:01.878Z,1.60
2022-09-18T11:40:07.799Z,1.85
2022-09-18T11:41:10.939Z,1.60
2022-09-18T11:42:15.084Z,1.90
2022-09-18T11:43:21.428Z,2.17
2022-09-18T11:44:27.509Z,1.90
2022-09-18T11:45:47.786Z,1.90
2022-09-18T11:47:02.189Z,1.98
2022-09-18T11:48:16.280Z,2.53
2022-09-18T11:49:23.966Z,1.85
2022-09-18T11:50:30.336Z,2.03
2022-09-18T11:51:39.312Z,2.17
2022-09-18T11:52:45.252Z,2.20
2022-09-18T11:53:51.896Z,2.30
2022-09-18T11:55:01.426Z,1.70
2022-09-18T11:56:09.733Z,2.17
2022-09-18T11:57:16.744Z,2.05
2022-09-18T11:58:27.074Z,2.10
2022-09-18T11:59:32.697Z,2.50
2022-09-18T12:00:43.370Z,3.15
2022-09-18T12:01:50.086Z,3.22
2022-09-18T12:03:01.333Z,3.10
2022-09-18T12:04:10.721Z,2.85
2022-09-18T12:05:23.337Z,2.53
2022-09-18T12:06:34.789Z,2.70
2022-09-18T12:07:43.382Z,2.72
2022-09-18T12:08:56.119Z,1.73
2022-09-18T12:10:06.211Z,1.65
2022-09-18T12:11:20.509Z,1.55
2022-09-18T12:12:27.458Z,1.42
2022-09-18T12:13:47.934Z,1.10
2022-09-18T12:15:00.258Z,1.65
2022-09-18T12:16:11.865Z,1.13
2022-09-18T12:17:22.002Z,1.48
2022-09-18T12:18:28.238Z,1.65
2022-09-18T12:19:36.706Z,1.65
2022-09-18T12:20:43.963Z,2.00
2022-09-18T12:21:52.391Z,1.75
2022-09-18T12:22:57.450Z,1.98
2022-09-18T12:24:00.867Z,2.35
2022-09-18T12:25:11.799Z,2.35
2022-09-18T12:26:21.248Z,2.30
2022-09-18T12:27:32.316Z,1.70
2022-09-18T12:28:42.657Z,1.67
2022-09-18T12:30:00.900Z,1.30
2022-09-18T12:31:11.057Z,1.45
2022-09-18T12:32:31.756Z,1.70
2022-09-18T12:33:41.569Z,1.58
2022-09-18T12:34:51.277Z,1.23
2022-09-18T12:36:09.262Z,1.30
2022-09-18T12:37:31.332Z,1.23
2022-09-18T12:38:55.072Z,1.10
2022-09-18T12:40:18.793Z,1.50
2022-09-18T12:41:35.474Z,1.20
2022-09-18T12:42:51.544Z,1.20
2022-09-18T12:44:13.640Z,1.58
2022-09-18T12:45:52.832Z,1.20
2022-09-18T12:47:15.063Z,1.70
2022-09-18T12:48:30.698Z,1.20
2022-09-18T12:49:50.721Z,1.40
2022-09-18T12:51:05.451Z,1.08
2022-09-18T12:52:27.071Z,1.08
2022-09-18T12:53:45.816Z,1.20
2022-09-18T12:55:06.917Z,1.30
2022-09-18T12:56:31.049Z,1.23
2022-09-18T12:57:51.243Z,1.25
2022-09-18T12:59:26.970Z,1.20
2022-09-18T13:00:30.689Z,1.25
2022-09-18T13:01:36.104Z,1.30
2022-09-18T13:02:55.257Z,1.10
2022-09-18T13:04:08.655Z,1.30
2022-09-18T13:05:17.095Z,1.15
2022-09-18T13:06:26.720Z,1.50
2022-09-18T13:07:33.090Z,1.50
2022-09-18T13:08:42.923Z,1.60
2022-09-18T13:10:03.618Z,1.27
2022-09-18T13:11:14.407Z,1.50
2022-09-18T13:12:24.589Z,1.73
2022-09-18T13:13:36.426Z,1.35
2022-09-18T13:14:43.127Z,1.58
2022-09-18T13:15:51.195Z,1.85
2022-09-18T13:16:58.144Z,1.92
2022-09-18T13:18:21.825Z,1.55
2022-09-18T13:19:27.994Z,2.55
2022-09-18T13:20:35.046Z,1.88
2022-09-18T13:21:41.585Z,2.00
2022-09-18T13:22:50.890Z,2.47
2022-09-18T13:23:56.531Z,2.60
2022-09-18T13:24:58.523Z,2.20
2022-09-18T13:26:02.406Z,2.97
2022-09-18T13:27:09.629Z,2.45
2022-09-18T13:28:17.660Z,3.70
2022-09-18T13:29:47.398Z,2.60
2022-09-18T13:31:12.116Z,2.90
2022-09-18T13:32:17.097Z,2.92
2022-09-18T13:33:24.410Z,2.78
2022-09-18T13:34:26.036Z,2.97
2022-09-18T13:35:31.062Z,2.70
2022-09-18T13:36:36.448Z,3.75
2022-09-18T13:37:38.128Z,2.85
2022-09-18T13:38:46.953Z,3.25
2022-09-18T13:40:09.459Z,2.92
2022-09-18T13:41:12.132Z,2.47
2022-09-18T13:42:14.935Z,2.35
2022-09-18T13:43:34.874Z,2.90
2022-09-18T13:44:39.078Z,2.90
2022-09-18T13:45:40.734Z,2.50
2022-09-18T13:46:44.769Z,2.45
2022-09-18T13:48:01.674Z,3.38
2022-09-18T13:49:19.022Z,2.63
2022-09-18T13:50:20.818Z,2.65
2022-09-18T13:51:30.628Z,2.58
2022-09-18T13:52:42.232Z,3.13
2022-09-18T13:53:45.429Z,2.70
2022-09-18T13:55:00.024Z,2.75
2022-09-18T13:56:03.953Z,2.20
2022-09-18T13:57:20.575Z,2.30
2022-09-18T13:58:52.414Z,2.20
2022-09-18T13:59:55.714Z,2.60
2022-09-18T14:00:59.009Z,2.08
2022-09-18T14:02:02.472Z,2.20
2022-09-18T14:03:33.986Z,1.73
2022-09-18T14:05:28.391Z,2.20
2022-09-18T14:06:44.099Z,2.20
2022-09-18T14:08:31.173Z,2.15
2022-09-18T14:09:51.333Z,3.50
2022-09-18T14:11:15.389Z,2.22
2022-09-18T14:12:18.485Z,2.28
2022-09-18T14:13:43.961Z,1.70
2022-09-18T14:15:02.560Z,1.90
2022-09-18T14:16:09.996Z,1.98
2022-09-18T14:17:15.061Z,1.60
2022-09-18T14:18:22.220Z,1.40
2022-09-18T14:19:32.036Z,1.75
2022-09-18T14:20:34.535Z,1.92
2022-09-18T14:21:42.167Z,1.95
2022-09-18T14:22:43.858Z,1.33
2022-09-18T14:24:25.201Z,2.05
2022-09-18T14:25:44.648Z,1.60
2022-09-18T14:26:56.208Z,1.90
2022-09-18T14:28:06.190Z,1.40
2022-09-18T14:29:14.635Z,1.65
2022-09-18T14:30:21.883Z,1.50
2022-09-18T14:31:27.193Z,1.50
2022-09-18T14:32:30.189Z,1.50
2022-09-18T14:33:34.567Z,1.50
2022-09-18T14:34:39.810Z,1.95
2022-09-18T14:35:47.276Z,2.03
2022-09-18T14:36:52.715Z,1.20
2022-09-18T14:37:54.290Z,1.30
2022-09-18T14:38:57.145Z,1.50
2022-09-18T14:39:59.100Z,1.23
2022-09-18T14:41:10.151Z,1.20
2022-09-18T14:42:18.676Z,1.52
2022-09-18T14:43:24.289Z,1.40
2022-09-18T14:44:28.342Z,1.40
2022-09-18T14:45:32.764Z,1.02
2022-09-18T14:46:34.407Z,1.20
2022-09-18T14:47:37.031Z,1.60